createdAt,value
2023-04-18T00:00:18.340Z,102792.22
2023-04-18T00:00:49.690Z,102795.75
2023-04-18T00:01:21.792Z,102796.06
2023-04-18T00:01:53.353Z,102796.56
2023-04-18T00:02:26.312Z,102786.81
2023-04-18T00:02:59.216Z,102797.47
2023-04-18T00:03:31.823Z,102802.09
2023-04-18T00:04:04.855Z,102788.53
2023-04-18T00:04:36.462Z,102797.47
2023-04-18T00:05:08.562Z,102795.56
2023-04-18T00:05:40.274Z,102796.66
2023-04-18T00:06:13.690Z,102794.75
2023-04-18T00:06:46.334Z,102794.75
2023-04-18T00:07:17.863Z,102797.97
2023-04-18T00:07:50.045Z,102799.88
2023-04-18T00:08:21.535Z,102792.84
2023-04-18T00:08:52.946Z,102802.59
2023-04-18T00:09:25.140Z,102800.19
2023-04-18T00:09:56.602Z,102800.19
2023-04-18T00:10:27.975Z,102795.56
2023-04-18T00:10:59.442Z,102795.56
2023-04-18T00:11:30.794Z,102801.00
2023-04-18T00:12:04.089Z,102802.91
2023-04-18T00:12:36.327Z,102799.38
2023-04-18T00:13:08.115Z,102799.69
2023-04-18T00:13:40.525Z,102804.31
2023-04-18T00:14:12.242Z,102801.13
2023-04-18T00:14:43.997Z,102800.66
2023-04-18T00:15:15.374Z,102799.84
2023-04-18T00:15:46.849Z,102795.53
2023-04-18T00:16:18.420Z,102799.03
2023-04-18T00:16:50.081Z,102799.03
2023-04-18T00:17:22.200Z,102793.91
2023-04-18T00:17:56.777Z,102796.63
2023-04-18T00:18:28.393Z,102795.03
2023-04-18T00:18:59.814Z,102796.44
2023-04-18T00:19:31.200Z,102790.03
2023-04-18T00:20:07.080Z,102791.44
2023-04-18T00:20:39.157Z,102796.06
2023-04-18T00:21:10.620Z,102792.84
2023-04-18T00:21:44.973Z,102797.47
2023-04-18T00:22:17.395Z,102798.28
2023-04-18T00:22:48.960Z,102794.75
2023-04-18T00:23:22.243Z,102792.06
2023-04-18T00:23:53.839Z,102796.69
2023-04-18T00:24:25.296Z,102791.56
2023-04-18T00:24:56.812Z,102797.63
2023-04-18T00:25:28.321Z,102796.31
2023-04-18T00:25:59.955Z,102799.03
2023-04-18T00:26:31.564Z,102800.94
2023-04-18T00:27:03.293Z,102801.56
2023-04-18T00:27:34.634Z,102798.34
2023-04-18T00:28:06.220Z,102799.75
2023-04-18T00:28:37.964Z,102797.03
2023-04-18T00:29:09.393Z,102801.69
2023-04-18T00:29:41.209Z,102798.97
2023-04-18T00:30:13.003Z,102790.81
2023-04-18T00:30:45.343Z,102799.56
2023-04-18T00:31:17.043Z,102803.41
2023-04-18T00:31:48.464Z,102795.56
2023-04-18T00:32:20.014Z,102796.69
2023-04-18T00:32:51.818Z,102796.19
2023-04-18T00:33:23.410Z,102798.59
2023-04-18T00:33:54.832Z,102794.59
2023-04-18T00:34:26.521Z,102799.22
2023-04-18T00:34:57.998Z,102800.63
2023-04-18T00:35:29.433Z,102797.09
2023-04-18T00:36:00.881Z,102792.78
2023-04-18T00:36:32.394Z,102795.81
2023-04-18T00:37:03.790Z,102798.53
2023-04-18T00:37:35.205Z,102795.31
2023-04-18T00:38:06.598Z,102797.53
2023-04-18T00:38:38.084Z,102799.44
2023-04-18T00:39:09.438Z,102794.00
2023-04-18T00:39:40.811Z,102795.91
2023-04-18T00:40:12.274Z,102800.84
2023-04-18T00:40:43.695Z,102798.44
2023-04-18T00:41:15.468Z,102794.91
2023-04-18T00:41:46.999Z,102792.19
2023-04-18T00:42:18.439Z,102793.81
2023-04-18T00:42:50.059Z,102795.72
2023-04-18T00:43:23.810Z,102801.47
2023-04-18T00:43:55.743Z,102794.44
2023-04-18T00:44:27.159Z,102800.97
2023-04-18T00:44:58.529Z,102799.38
2023-04-18T00:45:30.142Z,102795.06
2023-04-18T00:46:01.824Z,102799.16
2023-04-18T00:46:33.463Z,102792.13
2023-04-18T00:47:05.256Z,102801.69
2023-04-18T00:47:36.699Z,102796.56
2023-04-18T00:48:09.033Z,102797.66
2023-04-18T00:48:41.398Z,102796.88
2023-04-18T00:49:12.968Z,102792.53
2023-04-18T00:49:45.581Z,102794.16
2023-04-18T00:50:17.996Z,102794.97
2023-04-18T00:50:49.363Z,102787.63
2023-04-18T00:51:21.383Z,102791.94
2023-04-18T00:51:54.676Z,102793.03
2023-04-18T00:52:27.292Z,102794.66
2023-04-18T00:52:58.866Z,102791.13
2023-04-18T00:53:30.750Z,102788.72
2023-04-18T00:54:06.165Z,102792.25
2023-04-18T00:54:38.640Z,102790.63
2023-04-18T00:55:10.569Z,102788.72
2023-04-18T00:55:42.156Z,102791.44
2023-04-18T00:56:14.120Z,102794.97
2023-04-18T00:56:46.999Z,102790.34
2023-04-18T00:57:18.600Z,102787.63
2023-04-18T00:57:50.803Z,102785.22
2023-04-18T00:58:22.419Z,102787.13
2023-04-18T00:58:54.244Z,102791.75
2023-04-18T00:59:25.733Z,102790.63
2023-04-18T00:59:57.418Z,102793.66
2023-04-18T01:00:28.901Z,102790.13
2023-04-18T01:01:00.385Z,102786.63
2023-04-18T01:01:31.797Z,102793.97
2023-04-18T01:02:04.098Z,102795.88
2023-04-18T01:02:41.054Z,102785.81
2023-04-18T01:03:14.271Z,102792.03
2023-04-18T01:03:45.985Z,102786.13
2023-04-18T01:04:17.613Z,102796.16
2023-04-18T01:04:49.441Z,102785.66
2023-04-18T01:05:22.735Z,102792.47
2023-04-18T01:05:55.304Z,102788.47
2023-04-18T01:06:27.259Z,102787.16
2023-04-18T01:06:59.229Z,102792.09
2023-04-18T01:07:33.486Z,102788.56
2023-04-18T01:08:04.955Z,102785.06
2023-04-18T01:08:36.419Z,102794.00
2023-04-18T01:09:07.895Z,102785.84
2023-04-18T01:09:40.428Z,102788.56
2023-04-18T01:10:12.137Z,102792.09
2023-04-18T01:10:43.578Z,102785.34
2023-04-18T01:11:15.148Z,102792.19
2023-04-18T01:11:47.353Z,102789.47
2023-04-18T01:12:18.977Z,102787.06
2023-04-18T01:12:50.391Z,102795.19
2023-04-18T01:13:21.731Z,102790.06
2023-04-18T01:14:03.934Z,102792.31
2023-04-18T01:14:35.345Z,102791.00
2023-04-18T01:15:08.027Z,102787.78
2023-04-18T01:15:41.191Z,102791.59
2023-04-18T01:16:13.275Z,102793.31
2023-04-18T01:16:44.693Z,102794.41
2023-04-18T01:17:16.314Z,102793.31
2023-04-18T01:17:47.969Z,102794.13
2023-04-18T01:18:20.735Z,102792.22
2023-04-18T01:18:52.612Z,102787.38
2023-04-18T01:19:24.130Z,102783.88
2023-04-18T01:19:56.856Z,102790.38
2023-04-18T01:20:28.558Z,102792.31
2023-04-18T01:21:00.534Z,102786.88
2023-04-18T01:21:37.073Z,102782.56
2023-04-18T01:22:08.802Z,102786.06
2023-04-18T01:22:40.384Z,102785.28
2023-04-18T01:23:11.819Z,102781.75
2023-04-18T01:23:43.783Z,102793.69
2023-04-18T01:24:17.308Z,102788.28
2023-04-18T01:24:48.635Z,102787.19
2023-04-18T01:25:20.001Z,102786.06
2023-04-18T01:25:51.800Z,102786.88
2023-04-18T01:26:23.491Z,102791.19
2023-04-18T01:26:54.946Z,102780.34
2023-04-18T01:27:26.306Z,102781.97
2023-04-18T01:27:58.761Z,102777.66
2023-04-18T01:28:30.389Z,102778.25
2023-04-18T01:29:02.008Z,102775.84
2023-04-18T01:29:33.506Z,102781.25
2023-04-18T01:30:05.632Z,102778.38
2023-04-18T01:30:36.997Z,102784.09
2023-04-18T01:31:08.453Z,102786.28
2023-04-18T01:31:41.223Z,102777.66
2023-04-18T01:32:12.675Z,102774.16
2023-04-18T01:32:44.951Z,102779.56
2023-04-18T01:33:16.416Z,102779.88
2023-04-18T01:33:47.808Z,102781.47
2023-04-18T01:34:19.293Z,102780.38
2023-04-18T01:34:50.769Z,102773.84
2023-04-18T01:35:22.242Z,102781.19
2023-04-18T01:35:53.653Z,102781.19
2023-04-18T01:36:25.212Z,102781.97
2023-04-18T01:36:56.824Z,102780.38
2023-04-18T01:37:28.194Z,102774.16
2023-04-18T01:38:00.618Z,102776.84
2023-04-18T01:38:33.012Z,102774.44
2023-04-18T01:39:04.639Z,102773.63
2023-04-18T01:39:36.035Z,102770.94
2023-04-18T01:40:08.196Z,102770.94
2023-04-18T01:40:39.559Z,102774.75
2023-04-18T01:41:11.046Z,102771.22
2023-04-18T01:41:42.686Z,102770.44
2023-04-18T01:42:14.049Z,102774.25
2023-04-18T01:42:45.542Z,102768.00
2023-04-18T01:43:17.244Z,102776.44
2023-04-18T01:43:48.686Z,102772.94
2023-04-18T01:44:20.226Z,102767.81
2023-04-18T01:44:52.064Z,102771.03
2023-04-18T01:45:23.586Z,102765.91
2023-04-18T01:45:54.943Z,102763.03
2023-04-18T01:46:26.955Z,102767.94
2023-04-18T01:46:58.441Z,102761.22
2023-04-18T01:47:29.920Z,102769.34
2023-04-18T01:48:01.456Z,102768.53
2023-04-18T01:48:33.342Z,102763.91
2023-04-18T01:49:05.081Z,102769.03
2023-04-18T01:49:36.502Z,102767.94
2023-04-18T01:50:08.376Z,102771.44
2023-04-18T01:50:39.729Z,102769.53
2023-04-18T01:51:11.104Z,102771.44
2023-04-18T01:51:43.126Z,102769.53
2023-04-18T01:52:14.660Z,102763.31
2023-04-18T01:52:46.017Z,102766.03
2023-04-18T01:53:18.649Z,102773.34
2023-04-18T01:53:50.452Z,102764.41
2023-04-18T01:54:22.032Z,102767.44
2023-04-18T01:54:53.592Z,102764.72
2023-04-18T01:55:24.957Z,102765.03
2023-04-18T01:55:58.356Z,102766.13
2023-04-18T01:56:29.721Z,102766.13
2023-04-18T01:57:01.106Z,102765.31
2023-04-18T01:57:34.352Z,102765.63
2023-04-18T01:58:05.819Z,102772.94
2023-04-18T01:58:37.795Z,102763.19
2023-04-18T01:59:09.374Z,102768.31
2023-04-18T01:59:40.737Z,102769.44
2023-04-18T02:00:12.622Z,102765.91
2023-04-18T02:00:44.344Z,102768.63
2023-04-18T02:01:15.944Z,102759.19
2023-04-18T02:01:47.298Z,102770.03
2023-04-18T02:02:18.801Z,102763.50
2023-04-18T02:02:50.517Z,102768.13
2023-04-18T02:03:22.248Z,102761.09
2023-04-18T02:03:54.209Z,102767.59
2023-04-18T02:04:26.492Z,102757.41
2023-04-18T02:04:57.878Z,102766.63
2023-04-18T02:05:29.553Z,102759.59
2023-04-18T02:06:02.708Z,102760.69
2023-04-18T02:06:34.381Z,102759.59
2023-04-18T02:07:05.783Z,102764.22
2023-04-18T02:07:37.196Z,102758.81
2023-04-18T02:08:08.687Z,102766.63
2023-04-18T02:08:40.319Z,102765.31
2023-04-18T02:09:12.011Z,102754.78
2023-04-18T02:09:43.404Z,102762.09
2023-04-18T02:10:15.511Z,102758.59
2023-04-18T02:10:47.104Z,102762.41
2023-04-18T02:11:18.643Z,102762.41
2023-04-18T02:11:50.540Z,102758.59
2023-04-18T02:12:22.212Z,102755.88
2023-04-18T02:12:53.644Z,102760.50
2023-04-18T02:13:25.046Z,102765.09
2023-04-18T02:13:56.557Z,102764.00
2023-04-18T02:14:32.396Z,102759.69
2023-04-18T02:15:04.197Z,102757.50
2023-04-18T02:15:35.867Z,102758.59
2023-04-18T02:16:13.033Z,102760.78
2023-04-18T02:16:44.659Z,102763.78
2023-04-18T02:17:16.054Z,102761.09
2023-04-18T02:17:50.537Z,102760.28
2023-04-18T02:18:24.685Z,102761.69
2023-04-18T02:18:56.422Z,102762.78
2023-04-18T02:19:29.351Z,102761.97
2023-04-18T02:20:01.200Z,102759.88
2023-04-18T02:20:33.650Z,102757.97
2023-04-18T02:21:05.072Z,102760.66
2023-04-18T02:21:36.623Z,102761.78
2023-04-18T02:22:07.991Z,102760.16
2023-04-18T02:22:39.469Z,102759.38
2023-04-18T02:23:11.141Z,102753.47
2023-04-18T02:23:42.732Z,102753.47
2023-04-18T02:24:14.374Z,102755.38
2023-04-18T02:24:46.233Z,102754.56
2023-04-18T02:25:18.590Z,102758.38
2023-04-18T02:25:50.696Z,102752.16
2023-04-18T02:26:22.798Z,102756.47
2023-04-18T02:26:54.243Z,102754.56
2023-04-18T02:27:25.888Z,102759.69
2023-04-18T02:27:58.177Z,102757.78
2023-04-18T02:28:29.545Z,102756.16
2023-04-18T02:29:00.960Z,102752.97
2023-04-18T02:29:32.356Z,102762.97
2023-04-18T02:30:04.282Z,102756.75
2023-04-18T02:30:35.697Z,102752.97
2023-04-18T02:31:07.770Z,102754.84
2023-04-18T02:31:40.610Z,102753.75
2023-04-18T02:32:12.366Z,102752.16
2023-04-18T02:32:43.949Z,102753.75
2023-04-18T02:33:15.455Z,102755.66
2023-04-18T02:33:48.059Z,102761.06
2023-04-18T02:34:19.598Z,102759.19
2023-04-18T02:34:51.167Z,102753.75
2023-04-18T02:35:23.380Z,102761.88
2023-04-18T02:35:54.779Z,102759.97
2023-04-18T02:36:27.975Z,102754.06
2023-04-18T02:36:59.384Z,102759.47
2023-04-18T02:37:30.741Z,102754.06
2023-04-18T02:38:02.199Z,102760.56
2023-04-18T02:38:33.589Z,102759.78
2023-04-18T02:39:04.976Z,102758.16
2023-04-18T02:39:36.750Z,102757.31
2023-04-18T02:40:08.998Z,102768.16
2023-04-18T02:40:40.512Z,102763.84
2023-04-18T02:41:15.355Z,102764.94
2023-04-18T02:41:46.833Z,102763.34
2023-04-18T02:42:18.217Z,102764.72
2023-04-18T02:42:49.750Z,102766.13
2023-04-18T02:43:21.166Z,102762.91
2023-04-18T02:43:52.666Z,102767.84
2023-04-18T02:44:24.057Z,102768.94
2023-04-18T02:44:55.422Z,102771.66
2023-04-18T02:45:26.886Z,102770.84
2023-04-18T02:45:58.456Z,102769.53
2023-04-18T02:46:30.065Z,102769.53
2023-04-18T02:47:01.604Z,102764.13
2023-04-18T02:47:37.729Z,102766.81
2023-04-18T02:48:18.729Z,102769.53
2023-04-18T02:48:50.292Z,102765.72
2023-04-18T02:49:21.834Z,102765.72
2023-04-18T02:49:53.398Z,102767.63
2023-04-18T02:50:25.189Z,102769.53
2023-04-18T02:51:03.305Z,102770.63
2023-04-18T02:51:34.733Z,102764.41
2023-04-18T02:52:06.630Z,102765.50
2023-04-18T02:52:38.007Z,102769.31
2023-04-18T02:53:09.476Z,102766.91
2023-04-18T02:53:40.935Z,102765.28
2023-04-18T02:54:12.620Z,102756.66
2023-04-18T02:54:44.154Z,102763.69
2023-04-18T02:55:15.928Z,102767.47
2023-04-18T02:55:47.269Z,102767.47
2023-04-18T02:56:18.781Z,102765.06
2023-04-18T02:56:54.235Z,102763.47
2023-04-18T02:57:25.840Z,102768.06
2023-04-18T02:57:57.571Z,102764.06
2023-04-18T02:58:29.351Z,102767.56
2023-04-18T02:59:00.693Z,102769.47
2023-04-18T02:59:32.232Z,102765.97
2023-04-18T03:00:04.568Z,102763.28
2023-04-18T03:00:36.280Z,102764.84
2023-04-18T03:01:07.917Z,102762.16
2023-04-18T03:01:39.324Z,102761.66
2023-04-18T03:02:10.753Z,102767.88
2023-04-18T03:02:42.218Z,102767.09
2023-04-18T03:03:13.672Z,102765.47
2023-04-18T03:03:45.465Z,102765.47
2023-04-18T03:04:16.985Z,102761.16
2023-04-18T03:04:48.357Z,102766.06
2023-04-18T03:05:20.245Z,102759.84
2023-04-18T03:05:51.607Z,102763.94
2023-04-18T03:06:23.013Z,102760.72
2023-04-18T03:06:56.141Z,102759.13
2023-04-18T03:07:27.751Z,102758.59
2023-04-18T03:07:59.167Z,102763.22
2023-04-18T03:08:30.652Z,102763.22
2023-04-18T03:09:03.838Z,102761.59
2023-04-18T03:09:35.592Z,102766.22
2023-04-18T03:10:07.510Z,102753.78
2023-04-18T03:10:39.667Z,102755.38
2023-04-18T03:11:11.371Z,102751.59
2023-04-18T03:11:42.807Z,102755.09
2023-04-18T03:12:14.234Z,102754.28
2023-04-18T03:12:47.577Z,102757.81
2023-04-18T03:13:18.986Z,102753.78
2023-04-18T03:13:50.438Z,102758.38
2023-04-18T03:14:21.838Z,102760.28
2023-04-18T03:14:53.225Z,102751.38
2023-04-18T03:15:24.843Z,102753.59
2023-04-18T03:15:56.445Z,102755.16
2023-04-18T03:16:27.965Z,102755.16
2023-04-18T03:16:59.600Z,102757.56
2023-04-18T03:17:31.283Z,102759.47
2023-04-18T03:18:02.823Z,102755.97
2023-04-18T03:18:34.300Z,102750.56
2023-04-18T03:19:05.902Z,102751.69
2023-04-18T03:19:37.481Z,102759.81
2023-04-18T03:20:10.509Z,102751.97
2023-04-18T03:20:42.096Z,102753.38
2023-04-18T03:21:14.690Z,102762.59
2023-04-18T03:21:46.258Z,102760.69
2023-04-18T03:22:17.748Z,102756.66
2023-04-18T03:22:49.150Z,102754.25
2023-04-18T03:23:20.531Z,102753.44
2023-04-18T03:23:53.068Z,102749.94
2023-04-18T03:24:24.507Z,102757.25
2023-04-18T03:24:56.462Z,102753.72
2023-04-18T03:25:27.846Z,102756.72
2023-04-18T03:25:59.565Z,102757.81
2023-04-18T03:26:31.219Z,102760.53
2023-04-18T03:27:02.712Z,102758.91
2023-04-18T03:27:34.141Z,102756.22
2023-04-18T03:28:05.584Z,102757.03
2023-04-18T03:28:37.010Z,102760.03
2023-04-18T03:29:08.623Z,102756.50
2023-04-18T03:29:40.242Z,102755.72
2023-04-18T03:30:11.790Z,102757.91
2023-04-18T03:30:43.346Z,102758.22
2023-04-18T03:31:14.744Z,102760.91
2023-04-18T03:31:46.503Z,102758.50
2023-04-18T03:32:18.346Z,102759.59
2023-04-18T03:32:49.948Z,102756.09
2023-04-18T03:33:22.430Z,102761.50
2023-04-18T03:33:53.826Z,102755.28
2023-04-18T03:34:25.284Z,102764.50
2023-04-18T03:34:56.856Z,102762.09
2023-04-18T03:35:28.738Z,102772.09
2023-04-18T03:36:00.195Z,102765.09
2023-04-18T03:36:31.581Z,102768.88
2023-04-18T03:37:02.992Z,102768.06
2023-04-18T03:37:34.341Z,102769.97
2023-04-18T03:38:05.875Z,102775.38
2023-04-18T03:38:40.428Z,102767.28
2023-04-18T03:39:11.785Z,102769.97
2023-04-18T03:39:43.177Z,102768.38
2023-04-18T03:40:14.652Z,102769.47
2023-04-18T03:40:46.279Z,102766.75
2023-04-18T03:41:17.693Z,102772.16
2023-04-18T03:41:49.839Z,102767.56
2023-04-18T03:42:21.189Z,102767.84
2023-04-18T03:42:52.853Z,102768.66
2023-04-18T03:43:24.266Z,102764.34
2023-04-18T03:43:55.678Z,102771.66
2023-04-18T03:44:27.230Z,102763.81
2023-04-18T03:44:58.607Z,102760.59
2023-04-18T03:45:30.198Z,102769.84
2023-04-18T03:46:02.337Z,102770.13
2023-04-18T03:46:33.798Z,102770.44
2023-04-18T03:47:05.315Z,102767.72
2023-04-18T03:47:37.219Z,102769.63
2023-04-18T03:48:08.634Z,102769.91
2023-04-18T03:48:40.184Z,102771.00
2023-04-18T03:49:11.747Z,102765.59
2023-04-18T03:49:43.297Z,102771.81
2023-04-18T03:50:14.669Z,102769.09
2023-04-18T03:50:46.166Z,102772.09
2023-04-18T03:51:17.658Z,102771.28
2023-04-18T03:51:49.275Z,102773.19
2023-04-18T03:52:21.044Z,102771.28
2023-04-18T03:52:52.744Z,102768.59
2023-04-18T03:53:24.283Z,102766.97
2023-04-18T03:53:55.684Z,102775.38
2023-04-18T03:54:27.307Z,102771.88
2023-04-18T03:54:58.749Z,102775.66
2023-04-18T03:55:30.157Z,102777.56
2023-04-18T03:56:01.923Z,102776.75
2023-04-18T03:56:33.513Z,102773.53
2023-04-18T03:57:04.881Z,102767.03
2023-04-18T03:57:36.355Z,102778.66
2023-04-18T03:58:07.912Z,102770.56
2023-04-18T03:58:39.452Z,102776.75
2023-04-18T03:59:12.052Z,102770.56
2023-04-18T03:59:43.920Z,102779.47
2023-04-18T04:00:16.387Z,102770.56
2023-04-18T04:00:47.767Z,102774.06
2023-04-18T04:01:19.323Z,102778.38
2023-04-18T04:01:50.939Z,102775.66
2023-04-18T04:02:22.599Z,102770.56
2023-04-18T04:02:54.310Z,102775.16
2023-04-18T04:03:27.922Z,102770.03
2023-04-18T04:03:59.945Z,102778.94
2023-04-18T04:04:31.446Z,102777.84
2023-04-18T04:05:03.180Z,102779.75
2023-04-18T04:05:34.613Z,102775.44
2023-04-18T04:06:06.738Z,102774.34
2023-04-18T04:06:38.222Z,102782.44
2023-04-18T04:07:09.657Z,102771.63
2023-04-18T04:07:41.108Z,102773.53
2023-04-18T04:08:14.149Z,102774.34
2023-04-18T04:08:45.807Z,102775.44
2023-04-18T04:09:17.336Z,102778.94
2023-04-18T04:09:48.741Z,102775.16
2023-04-18T04:10:20.540Z,102778.66
2023-04-18T04:10:52.081Z,102778.66
2023-04-18T04:11:23.830Z,102771.34
2023-04-18T04:11:55.300Z,102775.97
2023-04-18T04:12:27.746Z,102771.63
2023-04-18T04:12:59.160Z,102772.72
2023-04-18T04:13:30.510Z,102770.84
2023-04-18T04:14:02.175Z,102771.94
2023-04-18T04:14:33.632Z,102778.94
2023-04-18T04:15:05.731Z,102776.25
2023-04-18T04:15:38.452Z,102775.16
2023-04-18T04:16:09.966Z,102774.06
2023-04-18T04:16:41.762Z,102774.06
2023-04-18T04:17:13.197Z,102775.66
2023-04-18T04:17:44.549Z,102770.25
2023-04-18T04:18:15.982Z,102773.75
2023-04-18T04:18:47.498Z,102774.28
2023-04-18T04:19:18.967Z,102779.69
2023-04-18T04:19:51.234Z,102771.28
2023-04-18T04:20:26.446Z,102769.38
2023-04-18T04:20:59.145Z,102770.19
2023-04-18T04:21:31.433Z,102772.63
2023-04-18T04:22:02.792Z,102772.63
2023-04-18T04:22:34.738Z,102770.72
2023-04-18T04:23:06.996Z,102769.63
2023-04-18T04:23:38.608Z,102771.50
2023-04-18T04:24:10.159Z,102775.84
2023-04-18T04:24:42.653Z,102774.22
2023-04-18T04:25:14.262Z,102776.13
2023-04-18T04:25:46.335Z,102770.72
2023-04-18T04:26:17.753Z,102776.13
2023-04-18T04:26:50.864Z,102778.03
2023-04-18T04:27:22.661Z,102774.22
2023-04-18T04:27:54.891Z,102775.03
2023-04-18T04:28:26.389Z,102770.44
2023-04-18T04:28:58.111Z,102768.53
2023-04-18T04:29:29.517Z,102777.44
2023-04-18T04:30:02.516Z,102774.44
2023-04-18T04:30:33.924Z,102769.84
2023-04-18T04:31:06.753Z,102771.44
2023-04-18T04:31:38.180Z,102777.63
2023-04-18T04:32:09.729Z,102775.44
2023-04-18T04:32:41.226Z,102773.53
2023-04-18T04:33:12.948Z,102777.34
2023-04-18T04:33:44.852Z,102777.06
2023-04-18T04:34:16.756Z,102775.16
2023-04-18T04:34:49.364Z,102768.66
2023-04-18T04:35:20.701Z,102778.09
2023-04-18T04:35:52.694Z,102774.88
2023-04-18T04:36:27.106Z,102780.78
2023-04-18T04:36:58.457Z,102775.66
2023-04-18T04:37:29.834Z,102778.09
2023-04-18T04:38:01.639Z,102776.47
2023-04-18T04:38:33.443Z,102779.69
2023-04-18T04:39:05.278Z,102780.50
2023-04-18T04:39:36.632Z,102774.28
2023-04-18T04:40:11.731Z,102784.31
2023-04-18T04:40:43.525Z,102779.69
2023-04-18T04:41:15.283Z,102779.69
2023-04-18T04:41:47.121Z,102787.81
2023-04-18T04:42:19.369Z,102780.50
2023-04-18T04:42:53.989Z,102787.53
2023-04-18T04:43:26.033Z,102777.78
2023-04-18T04:43:57.419Z,102781.31
2023-04-18T04:44:29.373Z,102779.69
2023-04-18T04:45:01.633Z,102783.19
2023-04-18T04:45:33.635Z,102784.31
2023-04-18T04:46:07.529Z,102785.09
2023-04-18T04:46:40.277Z,102785.09
2023-04-18T04:47:11.872Z,102784.31
2023-04-18T04:47:43.238Z,102781.31
2023-04-18T04:48:15.244Z,102787.53
2023-04-18T04:48:46.728Z,102785.63
2023-04-18T04:49:18.403Z,102786.13
2023-04-18T04:49:49.746Z,102788.56
2023-04-18T04:50:21.379Z,102785.84
2023-04-18T04:50:54.964Z,102789.34
2023-04-18T04:51:28.087Z,102786.66
2023-04-18T04:52:01.428Z,102789.06
2023-04-18T04:52:33.686Z,102792.56
2023-04-18T04:53:06.400Z,102794.19
2023-04-18T04:53:37.869Z,102783.38
2023-04-18T04:54:09.244Z,102793.06
2023-04-18T04:54:40.637Z,102794.66
2023-04-18T04:55:12.226Z,102795.47
2023-04-18T04:55:43.734Z,102793.56
2023-04-18T04:56:15.162Z,102790.06
2023-04-18T04:56:46.580Z,102794.38
2023-04-18T04:57:17.993Z,102788.97
2023-04-18T04:57:49.488Z,102799.50
2023-04-18T04:58:21.059Z,102794.88
2023-04-18T04:58:53.713Z,102794.09
2023-04-18T04:59:25.145Z,102795.97
2023-04-18T04:59:56.561Z,102795.97
2023-04-18T05:00:28.827Z,102799.50
2023-04-18T05:01:00.559Z,102790.56
2023-04-18T05:01:32.030Z,102802.19
2023-04-18T05:02:03.580Z,102800.59
2023-04-18T05:02:35.267Z,102797.59
2023-04-18T05:03:08.219Z,102799.50
2023-04-18T05:03:39.948Z,102798.41
2023-04-18T05:04:12.727Z,102799.19
2023-04-18T05:04:44.453Z,102799.19
2023-04-18T05:05:16.310Z,102791.09
2023-04-18T05:05:48.547Z,102797.31
2023-04-18T05:06:20.929Z,102791.91
2023-04-18T05:06:52.676Z,102796.22
2023-04-18T05:07:24.248Z,102796.22
2023-04-18T05:07:55.660Z,102802.41
2023-04-18T05:08:27.149Z,102797.00
2023-04-18T05:09:00.839Z,102793.50
2023-04-18T05:09:32.237Z,102793.50
2023-04-18T05:10:04.239Z,102788.09
2023-04-18T05:10:38.739Z,102789.19
2023-04-18T05:11:10.205Z,102796.22
2023-04-18T05:11:41.614Z,102795.41
2023-04-18T05:12:13.015Z,102794.59
2023-04-18T05:12:44.623Z,102800.00
2023-04-18T05:13:16.200Z,102800.81
2023-04-18T05:13:47.577Z,102801.63
2023-04-18T05:14:20.699Z,102793.50
2023-04-18T05:14:52.252Z,102805.13
2023-04-18T05:15:24.298Z,102797.00
2023-04-18T05:15:56.665Z,102796.22
2023-04-18T05:16:28.090Z,102797.00
2023-04-18T05:16:59.693Z,102797.00
2023-04-18T05:17:31.131Z,102795.13
2023-04-18T05:18:02.791Z,102797.00
2023-04-18T05:18:35.073Z,102805.13
2023-04-18T05:19:06.596Z,102804.31
2023-04-18T05:19:37.968Z,102803.22
2023-04-18T05:20:10.053Z,102802.13
2023-04-18T05:20:41.539Z,102799.44
2023-04-18T05:21:12.950Z,102802.13
2023-04-18T05:21:44.581Z,102799.44
2023-04-18T05:22:15.990Z,102801.84
2023-04-18T05:22:47.386Z,102798.34
2023-04-18T05:24:07.787Z,102801.03
2023-04-18T05:24:39.486Z,102797.25
2023-04-18T05:25:12.240Z,102803.75
2023-04-18T05:25:43.720Z,102798.34
2023-04-18T05:26:15.194Z,102805.34
2023-04-18T05:26:46.781Z,102804.25
2023-04-18T05:27:18.353Z,102806.97
2023-04-18T05:27:50.489Z,102806.16
2023-04-18T05:28:25.574Z,102803.16
2023-04-18T05:28:57.022Z,102809.38
2023-04-18T05:29:28.363Z,102801.25
2023-04-18T05:29:59.738Z,102804.47
2023-04-18T05:30:31.146Z,102801.47
2023-04-18T05:31:02.882Z,102802.28
2023-04-18T05:31:34.565Z,102800.38
2023-04-18T05:32:06.968Z,102807.09
2023-04-18T05:32:39.232Z,102806.28
2023-04-18T05:33:10.753Z,102806.28
2023-04-18T05:33:42.423Z,102804.66
2023-04-18T05:34:14.287Z,102814.41
2023-04-18T05:34:46.133Z,102805.47
2023-04-18T05:35:17.539Z,102814.41
2023-04-18T05:35:49.035Z,102816.28
2023-04-18T05:36:20.625Z,102807.09
2023-04-18T05:36:52.106Z,102808.19
2023-04-18T05:37:23.550Z,102809.78
2023-04-18T05:37:55.025Z,102808.69
2023-04-18T05:38:26.412Z,102803.28
2023-04-18T05:38:57.733Z,102805.69
2023-04-18T05:39:29.339Z,102814.63
2023-04-18T05:40:01.230Z,102808.91
2023-04-18T05:40:32.750Z,102813.53
2023-04-18T05:41:04.344Z,102808.09
2023-04-18T05:41:35.803Z,102804.31
2023-04-18T05:42:07.577Z,102806.22
2023-04-18T05:42:39.313Z,102805.91
2023-04-18T05:43:10.691Z,102813.75
2023-04-18T05:43:44.414Z,102809.13
2023-04-18T05:44:19.874Z,102804.53
2023-04-18T05:44:51.401Z,102812.34
2023-04-18T05:45:22.782Z,102813.97
2023-04-18T05:45:56.550Z,102812.88
2023-04-18T05:46:29.344Z,102809.88
2023-04-18T05:47:01.017Z,102812.88
2023-04-18T05:47:33.733Z,102811.78
2023-04-18T05:48:05.363Z,102819.09
2023-04-18T05:48:36.779Z,102819.59
2023-04-18T05:49:08.356Z,102820.41
2023-04-18T05:49:39.745Z,102822.31
2023-04-18T05:50:11.325Z,102823.09
2023-04-18T05:50:42.707Z,102821.22
2023-04-18T05:51:14.308Z,102818.97
2023-04-18T05:51:46.262Z,102817.88
2023-04-18T05:52:17.651Z,102814.88
2023-04-18T05:52:49.038Z,102821.91
2023-04-18T05:53:20.834Z,102823.22
2023-04-18T05:53:52.346Z,102820.53
2023-04-18T05:54:25.177Z,102828.63
2023-04-18T05:54:56.591Z,102817.53
2023-04-18T05:55:28.100Z,102823.72
2023-04-18T05:55:59.849Z,102821.03
2023-04-18T05:56:31.272Z,102819.94
2023-04-18T05:57:04.498Z,102819.63
2023-04-18T05:57:36.432Z,102812.84
2023-04-18T05:58:07.922Z,102818.25
2023-04-18T05:58:39.277Z,102816.34
2023-04-18T05:59:10.782Z,102812.84
2023-04-18T05:59:42.437Z,102823.38
2023-04-18T06:00:14.491Z,102815.53
2023-04-18T06:00:47.953Z,102816.34
2023-04-18T06:01:19.405Z,102812.03
2023-04-18T06:01:51.371Z,102817.16
2023-04-18T06:02:22.944Z,102814.44
2023-04-18T06:02:54.589Z,102821.47
2023-04-18T06:03:26.502Z,102817.66
2023-04-18T06:03:58.781Z,102817.38
2023-04-18T06:04:30.417Z,102804.63
2023-04-18T06:05:02.045Z,102814.66